Terminal Aerodrome Forecast
Issued by NWS Duluth, MN

Home | Current Version | Previous Version | Text Only | Print | Product List | Glossary On
Versions: 1 2 3 4 5 6 7 8 9 10 11 12 13 14 15 16 17 18 19 20 21
847
FTUS43 KDLH 251141
TAFDLH
TAF
KDLH 251141Z 2512/2612 27008KT P6SM SKC
     FM251500 27014G22KT P6SM SCT035 SCT150
     FM260000 29008KT P6SM BKN040
     FM261000 30005KT 6SM BR SCT080
      TEMPO 2610/2612 2SM BR BKN008=

USA.gov is the U.S. government's official web portal to all federal, state and local government web resources and services.